createdAt,value
2023-05-13T00:00:11.021Z,82.30
2023-05-13T00:01:13.479Z,82.20
2023-05-13T00:02:17.059Z,82.20
2023-05-13T00:03:19.787Z,81.80
2023-05-13T00:04:23.549Z,81.60
2023-05-13T00:05:25.947Z,81.40
2023-05-13T00:06:29.728Z,81.10
2023-05-13T00:07:35.634Z,80.80
2023-05-13T00:08:39.434Z,80.50
2023-05-13T00:09:42.481Z,80.20
2023-05-13T00:10:46.134Z,80.10
2023-05-13T00:11:48.535Z,80.00
2023-05-13T00:12:52.228Z,79.80
2023-05-13T00:13:55.522Z,79.80
2023-05-13T00:15:00.459Z,79.60
2023-05-13T00:16:03.429Z,79.70
2023-05-13T00:17:07.627Z,79.80
2023-05-13T00:18:10.238Z,79.90
2023-05-13T00:19:13.716Z,79.80
2023-05-13T00:20:16.288Z,79.70
2023-05-13T00:21:19.689Z,79.80
2023-05-13T00:22:22.253Z,79.70
2023-05-13T00:23:25.682Z,79.80
2023-05-13T00:24:28.354Z,79.80
2023-05-13T00:25:32.062Z,79.80
2023-05-13T00:26:34.424Z,79.80
2023-05-13T00:27:37.872Z,79.80
2023-05-13T00:28:40.309Z,79.80
2023-05-13T00:29:43.690Z,79.90
2023-05-13T00:30:47.508Z,79.90
2023-05-13T00:31:51.345Z,79.90
2023-05-13T00:32:53.902Z,80.00
2023-05-13T00:33:57.389Z,80.10
2023-05-13T00:34:59.949Z,80.10
2023-05-13T00:36:04.038Z,80.20
2023-05-13T00:37:06.416Z,80.30
2023-05-13T00:38:09.744Z,80.40
2023-05-13T00:39:12.824Z,80.40
2023-05-13T00:40:23.152Z,80.50
2023-05-13T00:41:26.128Z,80.60
2023-05-13T00:42:29.776Z,80.70
2023-05-13T00:43:33.248Z,80.80
2023-05-13T00:44:35.869Z,81.00
2023-05-13T00:45:40.091Z,81.10
2023-05-13T00:46:44.155Z,81.20
2023-05-13T00:47:48.647Z,81.30
2023-05-13T00:48:51.506Z,81.40
2023-05-13T00:49:55.034Z,81.40
2023-05-13T00:50:58.146Z,81.50
2023-05-13T00:52:02.388Z,81.50
2023-05-13T00:53:05.108Z,81.60
2023-05-13T00:54:08.694Z,81.60
2023-05-13T00:55:12.103Z,81.50
2023-05-13T00:56:19.227Z,81.50
2023-05-13T00:57:22.119Z,81.30
2023-05-13T00:58:25.585Z,81.30
2023-05-13T00:59:30.857Z,81.40
2023-05-13T01:00:42.001Z,81.30
2023-05-13T01:02:07.607Z,81.30
2023-05-13T01:03:18.749Z,81.30
2023-05-13T01:04:28.501Z,81.20
2023-05-13T01:05:47.740Z,81.20
2023-05-13T01:07:02.207Z,81.20
2023-05-13T01:08:17.495Z,81.20
2023-05-13T01:09:34.169Z,81.20
2023-05-13T01:10:44.895Z,81.10
2023-05-13T01:11:50.231Z,81.10
2023-05-13T01:13:00.176Z,81.00
2023-05-13T01:14:09.621Z,80.90
2023-05-13T01:15:19.415Z,80.90
2023-05-13T01:16:36.826Z,80.80
2023-05-13T01:17:50.510Z,80.80
2023-05-13T01:19:00.237Z,80.80
2023-05-13T01:20:04.744Z,80.90
2023-05-13T01:21:09.708Z,80.90
2023-05-13T01:22:14.215Z,81.00
2023-05-13T01:23:18.105Z,81.00
2023-05-13T01:24:20.678Z,81.10
2023-05-13T01:25:25.647Z,81.10
2023-05-13T01:26:28.240Z,81.30
2023-05-13T01:27:32.609Z,81.40
2023-05-13T01:28:37.201Z,81.50
2023-05-13T01:29:42.023Z,81.50
2023-05-13T01:30:45.230Z,81.60
2023-05-13T01:31:50.680Z,81.70
2023-05-13T01:32:54.376Z,81.80
2023-05-13T01:33:59.098Z,81.90
2023-05-13T01:35:03.215Z,82.00
2023-05-13T01:36:10.039Z,82.00
2023-05-13T01:37:15.736Z,82.10
2023-05-13T01:38:21.647Z,82.20
2023-05-13T01:39:30.996Z,82.30
2023-05-13T01:40:38.335Z,82.50
2023-05-13T01:41:42.435Z,82.60
2023-05-13T01:42:46.240Z,82.70
2023-05-13T01:43:49.825Z,82.80
2023-05-13T01:44:53.570Z,82.90
2023-05-13T01:46:00.390Z,83.00
2023-05-13T01:47:04.074Z,83.10
2023-05-13T01:48:06.917Z,83.20
2023-05-13T01:49:18.764Z,83.30
2023-05-13T01:50:22.122Z,83.40
2023-05-13T01:51:25.841Z,83.60
2023-05-13T01:52:29.785Z,83.70
2023-05-13T01:53:33.606Z,83.80
2023-05-13T01:54:36.054Z,83.80
2023-05-13T01:55:44.226Z,83.90
2023-05-13T01:56:46.853Z,84.10
2023-05-13T01:57:50.341Z,84.20
2023-05-13T01:58:53.731Z,84.30
2023-05-13T01:59:57.132Z,84.30
2023-05-13T02:01:03.671Z,84.50
2023-05-13T02:02:06.183Z,84.70
2023-05-13T02:03:10.204Z,84.70
2023-05-13T02:04:12.701Z,84.80
2023-05-13T02:05:18.063Z,84.90
2023-05-13T02:06:20.863Z,85.10
2023-05-13T02:07:24.397Z,85.20
2023-05-13T02:08:28.140Z,85.30
2023-05-13T02:09:31.651Z,85.30
2023-05-13T02:10:34.404Z,85.40
2023-05-13T02:11:38.004Z,85.60
2023-05-13T02:12:40.579Z,85.60
2023-05-13T02:13:43.876Z,85.70
2023-05-13T02:14:48.169Z,85.80
2023-05-13T02:15:50.709Z,85.90
2023-05-13T02:16:54.074Z,85.90
2023-05-13T02:17:57.882Z,86.10
2023-05-13T02:19:01.667Z,86.20
2023-05-13T02:20:05.112Z,86.20
2023-05-13T02:21:08.601Z,86.20
2023-05-13T02:22:11.200Z,86.40
2023-05-13T02:23:15.752Z,86.60
2023-05-13T02:24:19.851Z,86.90
2023-05-13T02:25:23.696Z,86.90
2023-05-13T02:26:26.275Z,87.00
2023-05-13T02:27:29.707Z,87.00
2023-05-13T02:28:32.291Z,87.10
2023-05-13T02:29:35.859Z,87.10
2023-05-13T02:30:38.464Z,87.20
2023-05-13T02:31:43.309Z,87.20
2023-05-13T02:32:46.540Z,87.30
2023-05-13T02:33:49.964Z,87.40
2023-05-13T02:34:53.084Z,87.40
2023-05-13T02:35:58.124Z,87.50
2023-05-13T02:37:01.700Z,87.50
2023-05-13T02:38:05.314Z,87.70
2023-05-13T02:39:09.592Z,87.70
2023-05-13T02:40:16.194Z,87.80
2023-05-13T02:41:19.610Z,87.80
2023-05-13T02:42:26.126Z,87.90
2023-05-13T02:43:30.386Z,87.90
2023-05-13T02:44:40.414Z,87.90
2023-05-13T02:45:44.645Z,88.00
2023-05-13T02:46:48.210Z,88.00
2023-05-13T02:47:51.026Z,88.10
2023-05-13T02:48:54.561Z,88.30
2023-05-13T02:49:57.504Z,88.30
2023-05-13T02:51:01.029Z,88.50
2023-05-13T02:52:03.939Z,88.70
2023-05-13T02:53:11.746Z,88.90
2023-05-13T02:54:19.272Z,89.00
2023-05-13T02:55:24.556Z,89.00
2023-05-13T02:56:27.140Z,89.10
2023-05-13T02:57:30.986Z,89.20
2023-05-13T02:58:36.276Z,89.20
2023-05-13T02:59:39.674Z,89.30
2023-05-13T03:00:42.929Z,89.40
2023-05-13T03:01:47.016Z,89.40
2023-05-13T03:02:49.614Z,89.50
2023-05-13T03:03:53.214Z,89.60
2023-05-13T03:04:56.726Z,89.60
2023-05-13T03:06:00.561Z,89.60
2023-05-13T03:07:03.017Z,89.70
2023-05-13T03:08:06.882Z,89.70
2023-05-13T03:09:09.599Z,89.70
2023-05-13T03:10:13.546Z,89.70
2023-05-13T03:11:17.628Z,89.80
2023-05-13T03:12:21.274Z,89.90
2023-05-13T03:13:24.124Z,89.80
2023-05-13T03:14:28.209Z,89.90
2023-05-13T03:15:30.600Z,89.90
2023-05-13T03:16:34.564Z,89.90
2023-05-13T03:17:38.729Z,89.90
2023-05-13T03:18:42.773Z,90.00
2023-05-13T03:19:45.652Z,90.00
2023-05-13T03:20:49.247Z,90.10
2023-05-13T03:21:54.753Z,90.10
2023-05-13T03:22:58.349Z,90.10
2023-05-13T03:24:01.370Z,90.10
2023-05-13T03:25:06.848Z,90.10
2023-05-13T03:26:18.420Z,90.10
2023-05-13T03:27:25.802Z,90.20
2023-05-13T03:28:28.300Z,90.20
2023-05-13T03:29:31.761Z,90.30
2023-05-13T03:30:34.123Z,90.30
2023-05-13T03:31:45.601Z,90.40
2023-05-13T03:32:49.460Z,90.50
2023-05-13T03:33:53.243Z,90.50
2023-05-13T03:34:58.472Z,90.60
2023-05-13T03:36:02.359Z,90.60
2023-05-13T03:37:08.997Z,90.60
2023-05-13T03:38:12.522Z,90.70
2023-05-13T03:39:20.515Z,90.80
2023-05-13T03:40:25.117Z,90.80
2023-05-13T03:41:30.847Z,90.90
2023-05-13T03:42:35.156Z,90.90
2023-05-13T03:43:40.945Z,91.00
2023-05-13T03:44:47.492Z,91.00
2023-05-13T03:45:52.228Z,91.00
2023-05-13T03:46:57.352Z,91.10
2023-05-13T03:48:03.038Z,91.10
2023-05-13T03:49:05.781Z,91.10
2023-05-13T03:50:13.374Z,91.00
2023-05-13T03:51:19.220Z,91.10
2023-05-13T03:52:24.357Z,91.10
2023-05-13T03:53:27.224Z,91.10
2023-05-13T03:54:31.821Z,91.10
2023-05-13T03:55:35.722Z,91.10
2023-05-13T03:56:42.788Z,91.00
2023-05-13T03:57:49.679Z,91.10
2023-05-13T03:58:55.918Z,91.10
2023-05-13T03:59:59.896Z,90.90
2023-05-13T04:01:07.794Z,90.80
2023-05-13T04:02:10.562Z,91.00
2023-05-13T04:03:16.401Z,91.00
2023-05-13T04:04:20.043Z,91.00
2023-05-13T04:05:25.360Z,91.00
2023-05-13T04:06:30.688Z,91.00
2023-05-13T04:07:35.224Z,91.10
2023-05-13T04:08:39.098Z,91.10
2023-05-13T04:09:44.319Z,91.10
2023-05-13T04:10:48.342Z,91.20
2023-05-13T04:11:53.591Z,91.20
2023-05-13T04:12:56.167Z,91.20
2023-05-13T04:14:01.885Z,91.20
2023-05-13T04:15:05.904Z,91.20
2023-05-13T04:16:09.735Z,91.20
2023-05-13T04:17:13.185Z,91.20
2023-05-13T04:18:18.103Z,91.30
2023-05-13T04:19:21.114Z,91.40
2023-05-13T04:20:26.270Z,91.40
2023-05-13T04:21:29.073Z,91.50
2023-05-13T04:22:32.724Z,91.50
2023-05-13T04:23:35.522Z,91.50
2023-05-13T04:24:39.493Z,91.50
2023-05-13T04:25:42.443Z,91.60
2023-05-13T04:26:46.589Z,91.60
2023-05-13T04:27:50.690Z,91.50
2023-05-13T04:29:03.689Z,91.50
2023-05-13T04:30:08.800Z,91.70
2023-05-13T04:31:13.938Z,91.50
2023-05-13T04:32:21.586Z,91.70
2023-05-13T04:33:29.450Z,91.70
2023-05-13T04:34:32.264Z,91.70
2023-05-13T04:35:36.744Z,91.70
2023-05-13T04:36:40.384Z,91.70
2023-05-13T04:37:47.291Z,91.70
2023-05-13T04:38:52.256Z,91.60
2023-05-13T04:39:55.866Z,91.50
2023-05-13T04:40:59.820Z,91.40
2023-05-13T04:42:12.665Z,91.40
2023-05-13T04:43:18.726Z,91.30
2023-05-13T04:44:30.966Z,91.30
2023-05-13T04:45:34.405Z,91.10
2023-05-13T04:46:41.620Z,91.10
2023-05-13T04:47:44.496Z,91.00
2023-05-13T04:48:48.807Z,91.00
2023-05-13T04:49:52.482Z,91.00
2023-05-13T04:50:56.699Z,91.00
2023-05-13T04:52:03.384Z,90.90
2023-05-13T04:53:08.150Z,90.80
2023-05-13T04:54:10.863Z,90.40
2023-05-13T04:55:15.552Z,90.40
2023-05-13T04:57:25.253Z,90.20
2023-05-13T04:58:29.655Z,90.00
2023-05-13T04:59:33.892Z,89.80
2023-05-13T05:00:37.248Z,89.70
2023-05-13T05:01:42.468Z,89.50
2023-05-13T05:02:45.520Z,89.40
2023-05-13T05:03:49.262Z,89.10
2023-05-13T05:04:51.964Z,88.90
2023-05-13T05:05:55.860Z,88.70
2023-05-13T05:06:59.538Z,88.60
2023-05-13T05:08:03.423Z,88.50
2023-05-13T05:09:06.028Z,88.40
2023-05-13T05:10:10.940Z,88.20
2023-05-13T05:11:17.459Z,88.10
2023-05-13T05:12:21.242Z,88.00
2023-05-13T05:13:23.941Z,87.90
2023-05-13T05:14:28.878Z,87.60
2023-05-13T05:15:31.554Z,87.50
2023-05-13T05:16:37.487Z,87.30
2023-05-13T05:17:40.377Z,87.10
2023-05-13T05:18:44.655Z,87.00
2023-05-13T05:19:47.678Z,86.90
2023-05-13T05:20:51.493Z,86.40
2023-05-13T05:21:56.184Z,86.30
2023-05-13T05:23:00.480Z,86.10
2023-05-13T05:24:05.804Z,86.10
2023-05-13T05:25:11.781Z,85.80
2023-05-13T05:26:14.755Z,85.60
2023-05-13T05:27:19.997Z,85.40
2023-05-13T05:28:24.207Z,85.30
2023-05-13T05:29:30.290Z,85.20
2023-05-13T05:30:39.419Z,85.10
2023-05-13T05:31:48.333Z,84.80
2023-05-13T05:32:51.636Z,84.50
2023-05-13T05:33:56.429Z,84.20
2023-05-13T05:35:02.231Z,83.90
2023-05-13T05:36:06.803Z,83.60
2023-05-13T05:37:10.409Z,83.50
2023-05-13T05:38:16.071Z,83.10
2023-05-13T05:39:18.728Z,83.10
2023-05-13T05:40:23.500Z,82.90
2023-05-13T05:41:26.901Z,82.90
2023-05-13T05:42:30.635Z,82.70
2023-05-13T05:43:33.490Z,82.50
2023-05-13T05:44:38.800Z,82.20
2023-05-13T05:45:41.475Z,81.80
2023-05-13T05:46:48.030Z,81.70
2023-05-13T05:47:50.747Z,81.40
2023-05-13T05:48:54.731Z,81.60
2023-05-13T05:49:57.863Z,81.50
2023-05-13T05:51:01.767Z,81.10
2023-05-13T05:52:07.773Z,81.10
2023-05-13T05:53:11.567Z,81.00
2023-05-13T05:54:15.528Z,80.90
2023-05-13T05:55:19.134Z,79.90
2023-05-13T05:56:22.072Z,79.70
2023-05-13T05:57:26.842Z,79.70
2023-05-13T05:58:29.597Z,79.50
2023-05-13T05:59:33.806Z,79.00
2023-05-13T06:00:38.213Z,79.00
2023-05-13T06:01:41.856Z,78.70
2023-05-13T06:02:44.784Z,78.00
2023-05-13T06:03:51.518Z,78.00
2023-05-13T06:04:55.826Z,77.90
2023-05-13T06:06:04.868Z,77.70
2023-05-13T06:07:07.444Z,77.50
2023-05-13T06:08:11.038Z,77.50
2023-05-13T06:09:14.176Z,77.30
2023-05-13T06:10:20.059Z,77.00
2023-05-13T06:11:23.635Z,76.50
2023-05-13T06:12:27.371Z,76.40
2023-05-13T06:13:38.714Z,75.70
2023-05-13T06:14:44.477Z,75.90
2023-05-13T06:15:48.464Z,75.40
2023-05-13T06:16:53.555Z,75.50
2023-05-13T06:17:57.099Z,75.30
2023-05-13T06:18:59.773Z,75.10
2023-05-13T06:20:03.382Z,75.10
2023-05-13T06:21:06.155Z,74.90
2023-05-13T06:22:09.838Z,74.80
2023-05-13T06:23:12.566Z,74.50
2023-05-13T06:24:16.497Z,74.00
2023-05-13T06:25:19.529Z,74.10
2023-05-13T06:26:23.126Z,74.20
2023-05-13T06:27:25.945Z,73.90
2023-05-13T06:28:29.836Z,73.80
2023-05-13T06:29:32.543Z,73.30
2023-05-13T06:30:37.036Z,73.50
2023-05-13T06:31:41.150Z,72.90
2023-05-13T06:32:53.526Z,73.10
2023-05-13T06:34:00.295Z,72.50
2023-05-13T06:35:04.176Z,72.90
2023-05-13T06:36:09.374Z,72.60
2023-05-13T06:37:13.651Z,72.00
2023-05-13T06:38:18.864Z,71.80
2023-05-13T06:39:22.619Z,71.20
2023-05-13T06:40:26.410Z,71.10
2023-05-13T06:41:29.375Z,71.40
2023-05-13T06:42:40.591Z,71.60
2023-05-13T06:43:51.386Z,71.50
2023-05-13T06:44:58.028Z,71.20
2023-05-13T06:46:05.588Z,71.20
2023-05-13T06:47:10.417Z,71.00
2023-05-13T06:48:16.189Z,70.70
2023-05-13T06:49:18.909Z,70.20
2023-05-13T06:50:22.849Z,69.90
2023-05-13T06:51:27.079Z,70.30
2023-05-13T06:52:31.383Z,70.40
2023-05-13T06:53:34.216Z,69.80
2023-05-13T06:54:38.094Z,70.00
2023-05-13T06:55:41.877Z,69.80
2023-05-13T06:56:45.888Z,69.50
2023-05-13T06:57:48.479Z,68.00
2023-05-13T06:58:55.045Z,68.50
2023-05-13T06:59:57.613Z,68.20
2023-05-13T07:01:01.643Z,68.60
2023-05-13T07:02:04.752Z,68.50
2023-05-13T07:03:09.783Z,68.20
2023-05-13T07:04:12.434Z,68.20
2023-05-13T07:05:16.060Z,68.40
2023-05-13T07:06:19.631Z,67.80
2023-05-13T07:07:22.246Z,67.80
2023-05-13T07:08:25.807Z,67.50
2023-05-13T07:09:28.474Z,68.00
2023-05-13T07:10:32.732Z,67.10
2023-05-13T07:11:35.484Z,66.80
2023-05-13T07:12:39.121Z,67.80
2023-05-13T07:13:46.867Z,66.80
2023-05-13T07:14:49.823Z,66.20
2023-05-13T07:15:53.518Z,66.00
2023-05-13T07:16:57.561Z,66.10
2023-05-13T07:18:01.146Z,66.10
2023-05-13T07:19:05.376Z,66.20
2023-05-13T07:20:11.856Z,66.50
2023-05-13T07:21:15.576Z,65.70
2023-05-13T07:22:18.506Z,65.00
2023-05-13T07:23:22.236Z,65.60
2023-05-13T07:24:25.244Z,65.60
2023-05-13T07:25:29.012Z,65.80
2023-05-13T07:26:31.776Z,65.40
2023-05-13T07:27:35.364Z,65.70
2023-05-13T07:28:38.133Z,65.80
2023-05-13T07:29:41.827Z,65.00
2023-05-13T07:30:44.421Z,64.50
2023-05-13T07:31:48.121Z,64.20
2023-05-13T07:32:53.896Z,64.30
2023-05-13T07:33:57.117Z,64.40
2023-05-13T07:35:02.084Z,64.30
2023-05-13T07:36:06.959Z,63.90
2023-05-13T07:37:09.530Z,64.00
2023-05-13T07:38:13.319Z,63.40
2023-05-13T07:39:16.580Z,63.50
2023-05-13T07:40:21.104Z,63.20
2023-05-13T07:41:24.063Z,63.30
2023-05-13T07:42:29.960Z,63.20
2023-05-13T07:43:35.192Z,63.40
2023-05-13T07:44:38.673Z,63.50
2023-05-13T07:45:42.343Z,63.90
2023-05-13T07:46:46.128Z,63.30
2023-05-13T07:47:49.056Z,62.70
2023-05-13T07:48:52.612Z,62.70
2023-05-13T07:49:55.605Z,62.00
2023-05-13T07:51:00.700Z,62.30
2023-05-13T07:52:03.480Z,61.10
2023-05-13T07:53:07.208Z,61.80
2023-05-13T07:54:10.380Z,61.80
2023-05-13T07:55:14.361Z,61.80
2023-05-13T07:56:16.992Z,61.60
2023-05-13T07:57:20.739Z,61.20
2023-05-13T07:58:23.681Z,61.60
2023-05-13T07:59:27.341Z,61.30
2023-05-13T08:00:30.393Z,61.10
2023-05-13T08:01:34.218Z,61.20
2023-05-13T08:02:48.342Z,60.40
2023-05-13T08:03:55.137Z,60.70
2023-05-13T08:06:03.446Z,61.10
2023-05-13T08:08:10.252Z,59.90
2023-05-13T08:09:14.263Z,60.00
2023-05-13T08:10:17.161Z,60.10
2023-05-13T08:11:21.786Z,59.40
2023-05-13T08:12:24.566Z,59.50
2023-05-13T08:13:28.120Z,58.60
2023-05-13T08:14:30.644Z,58.40
2023-05-13T08:15:34.569Z,57.40
2023-05-13T08:16:37.398Z,58.30
2023-05-13T08:17:41.165Z,58.30
2023-05-13T08:18:43.734Z,58.80
2023-05-13T08:19:47.587Z,58.00
2023-05-13T08:20:50.560Z,57.70
2023-05-13T08:21:55.472Z,57.40
2023-05-13T08:22:58.899Z,57.60
2023-05-13T08:24:02.621Z,57.80
2023-05-13T08:25:06.206Z,57.00
2023-05-13T08:26:10.016Z,57.80
2023-05-13T08:27:13.317Z,56.60
2023-05-13T08:28:16.869Z,56.70
2023-05-13T08:29:19.607Z,57.20
2023-05-13T08:30:23.741Z,56.80
2023-05-13T08:31:26.878Z,56.00
2023-05-13T08:32:30.680Z,55.10
2023-05-13T08:33:33.553Z,55.10
2023-05-13T08:34:37.051Z,55.90
2023-05-13T08:35:39.817Z,56.20
2023-05-13T08:36:43.466Z,56.30
2023-05-13T08:37:47.649Z,55.80
2023-05-13T08:38:51.171Z,56.10
2023-05-13T08:39:56.015Z,56.60
2023-05-13T08:40:59.566Z,57.30
2023-05-13T08:42:05.180Z,56.70
2023-05-13T08:43:09.814Z,55.90
2023-05-13T08:44:13.793Z,55.70
2023-05-13T08:45:20.099Z,55.40
2023-05-13T08:46:25.263Z,56.00
2023-05-13T08:47:37.183Z,55.80
2023-05-13T08:48:42.567Z,56.70
2023-05-13T08:49:46.669Z,56.00
2023-05-13T08:50:50.798Z,56.40
2023-05-13T08:51:53.450Z,56.10
2023-05-13T08:53:00.456Z,55.20
2023-05-13T08:54:05.066Z,55.70
2023-05-13T08:55:10.121Z,55.20
2023-05-13T08:56:13.398Z,55.60
2023-05-13T08:57:17.707Z,55.30
2023-05-13T08:58:21.139Z,56.50
2023-05-13T08:59:24.921Z,55.20
2023-05-13T09:00:28.383Z,54.90
2023-05-13T09:01:31.897Z,55.40
2023-05-13T09:02:35.613Z,53.30
2023-05-13T09:03:52.506Z,54.60
2023-05-13T09:04:57.104Z,54.60
2023-05-13T09:06:01.596Z,54.00
2023-05-13T09:07:06.100Z,55.00
2023-05-13T09:08:10.476Z,54.40
2023-05-13T09:09:14.663Z,54.00
2023-05-13T09:10:18.920Z,53.80
2023-05-13T09:11:23.131Z,54.00
2023-05-13T09:13:59.681Z,53.60
2023-05-13T09:15:02.518Z,53.60
2023-05-13T09:16:07.208Z,53.90
2023-05-13T09:17:09.916Z,53.40
2023-05-13T09:18:15.746Z,52.90
2023-05-13T09:19:19.942Z,52.50
2023-05-13T09:20:26.014Z,52.40
2023-05-13T09:21:31.709Z,53.60
2023-05-13T09:22:35.355Z,53.30
2023-05-13T09:23:39.550Z,53.60
2023-05-13T09:25:59.276Z,53.60
2023-05-13T09:27:01.826Z,53.60
2023-05-13T09:28:07.986Z,53.20
2023-05-13T09:29:19.307Z,53.30
2023-05-13T09:30:23.222Z,53.20
2023-05-13T09:31:33.715Z,52.80
2023-05-13T09:32:37.550Z,52.10
2023-05-13T09:33:53.221Z,52.70
2023-05-13T09:34:55.677Z,53.50
2023-05-13T09:35:59.216Z,53.00
2023-05-13T09:37:04.220Z,53.00
2023-05-13T09:38:19.102Z,52.90
2023-05-13T09:39:23.221Z,52.50
2023-05-13T09:40:26.834Z,52.10
2023-05-13T09:41:31.639Z,51.80
2023-05-13T09:42:35.426Z,50.90
2023-05-13T09:43:40.376Z,52.20
2023-05-13T09:44:45.293Z,52.10
2023-05-13T09:45:47.999Z,52.30
2023-05-13T09:46:54.368Z,52.90
2023-05-13T09:47:57.448Z,51.80
2023-05-13T09:49:01.889Z,51.90
2023-05-13T09:50:06.451Z,52.40
2023-05-13T09:51:10.618Z,52.10
2023-05-13T09:52:18.477Z,52.20
2023-05-13T09:53:23.597Z,52.10
2023-05-13T09:54:34.990Z,52.50
2023-05-13T09:55:37.554Z,52.70
2023-05-13T09:56:41.150Z,52.90
2023-05-13T09:57:43.765Z,53.00
2023-05-13T09:58:53.644Z,52.60
2023-05-13T09:59:59.972Z,53.00
2023-05-13T10:01:05.461Z,52.50
2023-05-13T10:02:11.338Z,52.90
2023-05-13T10:03:16.281Z,52.40
2023-05-13T10:04:20.325Z,52.20
2023-05-13T10:05:24.045Z,51.90
2023-05-13T10:06:32.436Z,51.60
2023-05-13T10:07:35.469Z,52.30
2023-05-13T10:08:40.797Z,52.50
2023-05-13T10:09:48.256Z,52.30
2023-05-13T10:10:54.808Z,53.00
2023-05-13T10:12:00.214Z,51.50
2023-05-13T10:13:06.836Z,51.40
2023-05-13T10:14:11.655Z,51.90
2023-05-13T10:15:14.761Z,52.00
2023-05-13T10:16:19.785Z,52.30
2023-05-13T10:17:24.987Z,52.50
2023-05-13T10:18:29.757Z,52.20
2023-05-13T10:19:33.422Z,53.30
2023-05-13T10:20:37.463Z,53.20
2023-05-13T10:21:41.204Z,53.80
2023-05-13T10:22:45.755Z,54.10
2023-05-13T10:23:51.924Z,53.50
2023-05-13T10:24:59.157Z,54.00
2023-05-13T10:26:03.245Z,53.90
2023-05-13T10:27:08.685Z,53.50
2023-05-13T10:28:11.794Z,53.60
2023-05-13T10:29:16.405Z,53.40
2023-05-13T10:30:20.115Z,53.60
2023-05-13T10:31:24.577Z,53.50
2023-05-13T10:32:29.047Z,53.30
2023-05-13T10:33:33.126Z,52.90
2023-05-13T10:34:37.516Z,53.50
2023-05-13T10:36:00.184Z,54.10
2023-05-13T10:37:27.511Z,53.40
2023-05-13T10:38:51.976Z,53.60
2023-05-13T10:40:24.775Z,53.30
2023-05-13T10:42:03.732Z,53.20
2023-05-13T10:43:19.646Z,53.50
2023-05-13T10:44:23.947Z,52.50
2023-05-13T10:45:28.548Z,52.30
2023-05-13T10:46:34.200Z,53.00
2023-05-13T10:47:39.040Z,53.10
2023-05-13T10:48:44.574Z,52.30
2023-05-13T10:49:52.457Z,53.20
2023-05-13T10:50:58.046Z,53.40
2023-05-13T10:52:05.571Z,53.60
2023-05-13T10:53:22.156Z,53.40
2023-05-13T10:54:24.968Z,52.80
2023-05-13T10:55:30.139Z,52.20
2023-05-13T10:56:33.119Z,52.90
2023-05-13T10:57:38.588Z,53.20
2023-05-13T10:58:42.281Z,52.20
2023-05-13T11:00:17.043Z,53.00
2023-05-13T11:01:28.320Z,52.90
2023-05-13T11:02:32.672Z,52.30
2023-05-13T11:03:36.507Z,52.30
2023-05-13T11:04:58.446Z,52.20
2023-05-13T11:06:16.306Z,52.60
2023-05-13T11:07:18.939Z,52.50
2023-05-13T11:08:42.904Z,52.80
2023-05-13T11:09:52.009Z,52.80
2023-05-13T11:10:57.422Z,53.40
2023-05-13T11:12:01.743Z,52.50
2023-05-13T11:13:24.377Z,53.00
2023-05-13T11:14:31.425Z,52.30
2023-05-13T11:15:45.079Z,52.50
2023-05-13T11:16:54.564Z,53.00
2023-05-13T11:17:57.601Z,52.90
2023-05-13T11:19:03.262Z,53.30
2023-05-13T11:20:08.478Z,53.10
2023-05-13T11:21:12.403Z,53.00
2023-05-13T11:22:19.175Z,52.40
2023-05-13T11:23:23.577Z,52.30
2023-05-13T11:24:28.877Z,52.40
2023-05-13T11:25:32.508Z,52.80
2023-05-13T11:26:54.318Z,52.60
2023-05-13T11:27:58.118Z,52.40
2023-05-13T11:29:06.432Z,52.40
2023-05-13T11:30:24.066Z,52.30
2023-05-13T11:31:42.296Z,52.50
2023-05-13T11:32:56.644Z,52.50
2023-05-13T11:34:10.721Z,52.80
2023-05-13T11:35:19.844Z,52.60
2023-05-13T11:36:29.260Z,52.60
2023-05-13T11:38:36.337Z,52.80
2023-05-13T11:39:42.137Z,52.80
2023-05-13T11:40:46.353Z,53.20
2023-05-13T11:41:53.306Z,52.70
2023-05-13T11:42:56.825Z,52.60
2023-05-13T11:44:03.308Z,52.70
2023-05-13T11:45:09.274Z,52.40
2023-05-13T11:46:19.708Z,53.30
2023-05-13T11:47:28.782Z,53.30
2023-05-13T11:48:33.653Z,53.10
2023-05-13T11:49:40.476Z,52.50
2023-05-13T11:50:43.009Z,53.10
2023-05-13T11:51:46.777Z,53.70
2023-05-13T11:52:52.763Z,53.70
2023-05-13T11:54:02.695Z,53.20
2023-05-13T11:55:07.219Z,53.80
2023-05-13T11:56:10.840Z,53.60
2023-05-13T11:57:23.824Z,53.70
2023-05-13T11:58:26.496Z,53.40
2023-05-13T11:59:36.012Z,54.00
2023-05-13T12:00:49.174Z,53.20
2023-05-13T12:02:01.899Z,53.50
2023-05-13T12:03:13.330Z,53.50
2023-05-13T12:04:15.902Z,52.70
2023-05-13T12:05:19.803Z,53.00
2023-05-13T12:06:22.584Z,53.20
2023-05-13T12:07:27.693Z,53.10
2023-05-13T12:08:30.451Z,53.60
2023-05-13T12:09:34.531Z,53.80
2023-05-13T12:10:43.777Z,53.90
2023-05-13T12:11:47.535Z,53.70
2023-05-13T12:12:52.991Z,53.00
2023-05-13T12:13:55.794Z,54.10
2023-05-13T12:15:02.750Z,54.80
2023-05-13T12:16:06.613Z,54.20
2023-05-13T12:17:10.635Z,54.50
2023-05-13T12:18:13.751Z,54.40
2023-05-13T12:19:17.440Z,53.90
2023-05-13T12:20:21.219Z,54.00
2023-05-13T12:21:24.953Z,54.20
2023-05-13T12:22:28.018Z,54.20
2023-05-13T12:23:40.862Z,54.00
2023-05-13T12:24:43.407Z,53.90
2023-05-13T12:25:51.153Z,53.30
2023-05-13T12:27:05.473Z,53.70
2023-05-13T12:28:13.073Z,53.60
2023-05-13T12:29:17.028Z,53.50
2023-05-13T12:30:19.686Z,53.80
2023-05-13T12:31:24.116Z,54.30
2023-05-13T12:32:26.780Z,53.40
2023-05-13T12:33:32.954Z,53.70
2023-05-13T12:34:35.998Z,53.50
2023-05-13T12:35:39.461Z,53.30
2023-05-13T12:36:42.982Z,53.30
2023-05-13T12:37:45.582Z,53.00
2023-05-13T12:39:00.962Z,53.60
2023-05-13T12:40:11.128Z,53.10
2023-05-13T12:41:15.013Z,53.20
2023-05-13T12:42:19.591Z,53.10
2023-05-13T12:43:23.868Z,53.50
2023-05-13T12:44:30.060Z,53.80
2023-05-13T12:45:34.148Z,54.20
2023-05-13T12:46:40.073Z,54.20
2023-05-13T12:47:49.869Z,54.10
2023-05-13T12:48:57.057Z,54.10
2023-05-13T12:50:00.376Z,54.10
2023-05-13T12:51:04.372Z,54.20
2023-05-13T12:52:07.496Z,54.10
2023-05-13T12:53:11.146Z,54.00
2023-05-13T12:54:14.095Z,54.30
2023-05-13T12:55:18.119Z,54.10
2023-05-13T12:56:23.600Z,54.00
2023-05-13T12:57:26.290Z,54.70
2023-05-13T12:58:31.392Z,54.30
2023-05-13T12:59:34.741Z,54.40
2023-05-13T13:00:38.484Z,54.50
2023-05-13T13:01:42.904Z,54.70
2023-05-13T13:02:46.712Z,54.50
2023-05-13T13:03:50.990Z,54.40
2023-05-13T13:04:53.555Z,54.30
2023-05-13T13:05:58.164Z,54.00
2023-05-13T13:07:00.846Z,54.10
2023-05-13T13:08:06.229Z,54.40
2023-05-13T13:09:08.978Z,54.60
2023-05-13T13:10:12.845Z,53.90
2023-05-13T13:11:18.847Z,53.90
2023-05-13T13:12:23.093Z,53.60
2023-05-13T13:13:25.762Z,53.10
2023-05-13T13:14:31.424Z,53.30
2023-05-13T13:15:34.372Z,54.20
2023-05-13T13:16:38.110Z,54.10
2023-05-13T13:17:41.147Z,53.80
2023-05-13T13:18:44.856Z,54.10
2023-05-13T13:19:47.870Z,54.10
2023-05-13T13:20:52.636Z,54.40
2023-05-13T13:21:55.115Z,54.60
2023-05-13T13:22:59.907Z,54.30
2023-05-13T13:24:03.750Z,54.50
2023-05-13T13:25:07.204Z,54.60
2023-05-13T13:26:11.359Z,54.50
2023-05-13T13:27:13.950Z,55.50
2023-05-13T13:28:17.574Z,53.80
2023-05-13T13:29:20.168Z,54.60
2023-05-13T13:30:25.173Z,54.70
2023-05-13T13:31:33.770Z,54.90
2023-05-13T13:32:40.211Z,54.80
2023-05-13T13:33:43.099Z,55.00
2023-05-13T13:34:46.614Z,55.00
2023-05-13T13:35:51.325Z,55.10
2023-05-13T13:36:54.103Z,55.30
2023-05-13T13:37:57.909Z,55.50
2023-05-13T13:39:01.096Z,55.00
2023-05-13T13:40:04.808Z,54.80
2023-05-13T13:42:11.317Z,54.60
2023-05-13T13:43:13.792Z,55.20
2023-05-13T13:44:17.451Z,55.40
2023-05-13T13:45:24.116Z,55.30
2023-05-13T13:46:29.218Z,55.50
2023-05-13T13:47:31.811Z,55.30
2023-05-13T13:49:38.549Z,54.90
2023-05-13T13:51:45.894Z,55.00
2023-05-13T13:52:52.339Z,55.60
2023-05-13T13:53:55.058Z,55.30
2023-05-13T13:54:59.056Z,55.30
2023-05-13T13:56:02.420Z,55.60
2023-05-13T13:57:07.083Z,55.20
2023-05-13T13:59:13.860Z,55.50
2023-05-13T14:00:17.282Z,56.10
2023-05-13T14:01:21.211Z,55.70
2023-05-13T14:02:25.800Z,56.30
2023-05-13T14:03:29.547Z,56.10
2023-05-13T14:04:34.724Z,56.10
2023-05-13T14:05:39.134Z,55.80
2023-05-13T14:06:42.411Z,56.10
2023-05-13T14:07:46.419Z,56.00
2023-05-13T14:08:51.096Z,56.60
2023-05-13T14:09:54.803Z,56.70